createdAt,value
2019-04-29T00:01:04.313Z,99261.84
2019-04-29T00:06:07.713Z,99252.55
2019-04-29T00:11:11.110Z,99259.14
2019-04-29T00:16:21.682Z,99258.81
2019-04-29T00:21:25.468Z,99255.27
2019-04-29T00:26:28.811Z,99255.06
2019-04-29T00:31:32.148Z,99257.46
2019-04-29T00:36:37.107Z,99256.94
2019-04-29T00:41:50.892Z,99250.67
2019-04-29T00:46:54.281Z,99252.78
2019-04-29T00:51:57.654Z,99253.91
2019-04-29T00:57:01.063Z,99263.95
2019-04-29T01:02:05.208Z,99263.11
2019-04-29T01:07:08.619Z,99262.67
2019-04-29T01:12:11.965Z,99264.55
2019-04-29T01:17:15.302Z,99257.96
2019-04-29T01:22:18.688Z,99245.56
2019-04-29T01:27:23.632Z,99243.79
2019-04-29T01:32:27.026Z,99237.02
2019-04-29T01:37:34.778Z,99224.48
2019-04-29T01:42:39.776Z,99224.48
2019-04-29T01:47:43.130Z,99227.72
2019-04-29T01:52:46.443Z,99224.69
2019-04-29T01:57:49.774Z,99236.28
2019-04-29T02:02:53.091Z,99230.86
2019-04-29T02:07:56.415Z,99216.78
2019-04-29T02:12:59.761Z,99215.62
2019-04-29T02:18:03.072Z,99212.06
2019-04-29T02:23:08.032Z,99213.66
2019-04-29T02:28:11.342Z,99210.20
2019-04-29T02:33:14.664Z,99203.61
2019-04-29T02:43:35.180Z,99196.03
2019-04-29T02:48:38.498Z,99184.54
2019-04-29T02:53:41.802Z,99189.77
2019-04-29T02:58:46.743Z,99195.19
2019-04-29T03:03:54.644Z,99182.15
2019-04-29T03:08:57.994Z,99178.28
2019-04-29T03:14:01.311Z,99178.59
2019-04-29T03:19:09.239Z,99180.80
2019-04-29T03:24:12.612Z,99180.27
2019-04-29T03:29:24.591Z,99173.49
2019-04-29T03:34:27.891Z,99160.13
2019-04-29T03:39:31.196Z,99156.81
2019-04-29T03:44:34.507Z,99162.23
2019-04-29T03:49:37.816Z,99161.08
2019-04-29T03:54:41.122Z,99155.68
2019-04-29T03:59:44.442Z,99159.64
2019-04-29T04:04:55.205Z,99150.55
2019-04-29T04:09:58.592Z,99144.91
2019-04-29T04:15:01.904Z,99144.67
2019-04-29T04:20:05.766Z,99149.70
2019-04-29T04:25:09.107Z,99150.62
2019-04-29T04:30:12.819Z,99147.89
2019-04-29T04:35:16.227Z,99146.73
2019-04-29T04:40:29.981Z,99144.66
2019-04-29T04:45:33.318Z,99134.09
2019-04-29T04:50:36.760Z,99132.68
2019-04-29T04:55:41.736Z,99126.41
2019-04-29T05:00:45.064Z,99124.14
2019-04-29T05:05:48.415Z,99118.39
2019-04-29T05:10:51.763Z,99110.57
2019-04-29T05:15:55.085Z,99106.70
2019-04-29T05:20:58.409Z,99103.30
2019-04-29T05:26:01.717Z,99101.63
2019-04-29T05:31:05.063Z,99100.79
2019-04-29T05:36:10.052Z,99096.92
2019-04-29T05:41:13.384Z,99105.30
2019-04-29T05:46:29.942Z,99108.41
2019-04-29T05:51:43.757Z,99104.16
2019-04-29T05:56:47.113Z,99103.84
2019-04-29T06:01:50.476Z,99097.59
2019-04-29T06:06:53.777Z,99093.95
2019-04-29T06:11:57.101Z,99086.66
2019-04-29T06:17:02.975Z,99078.72
2019-04-29T06:22:05.418Z,99070.70
2019-04-29T06:27:08.776Z,99067.79
2019-04-29T06:32:12.085Z,99082.78
2019-04-29T06:37:15.537Z,99081.22
2019-04-29T06:42:19.565Z,99089.47
2019-04-29T06:47:23.754Z,99095.94
2019-04-29T06:52:27.059Z,99091.75
2019-04-29T06:57:30.397Z,99082.06
2019-04-29T07:02:33.747Z,99092.81
2019-04-29T07:07:37.085Z,99079.27
2019-04-29T07:12:42.826Z,99064.36
2019-04-29T07:17:46.372Z,99074.88
2019-04-29T07:22:49.681Z,99059.86
2019-04-29T07:27:52.982Z,99056.22
2019-04-29T07:32:56.300Z,99055.27
2019-04-29T07:37:59.597Z,99044.02
2019-04-29T07:43:07.367Z,99030.75
2019-04-29T07:48:08.005Z,99029.11
2019-04-29T07:53:11.301Z,99020.66
2019-04-29T07:58:14.622Z,99018.16
2019-04-29T08:03:17.945Z,99041.63
2019-04-29T08:08:22.804Z,99073.95
2019-04-29T08:13:26.211Z,99092.41
2019-04-29T08:18:29.509Z,99080.95
2019-04-29T08:23:40.886Z,99049.44
2019-04-29T08:28:37.848Z,99035.05
2019-04-29T08:33:42.470Z,99021.30
2019-04-29T08:38:46.174Z,99033.06
2019-04-29T08:43:52.375Z,99044.53
2019-04-29T08:48:56.141Z,99036.12
2019-04-29T08:53:59.468Z,98995.14
2019-04-29T08:59:02.766Z,98988.57
2019-04-29T09:04:06.065Z,98978.36
2019-04-29T09:09:27.991Z,98966.17
2019-04-29T09:14:14.400Z,98945.52
2019-04-29T09:19:17.711Z,98953.05
2019-04-29T09:24:21.028Z,98955.21
2019-04-29T09:29:36.989Z,98946.48
2019-04-29T09:34:40.407Z,98943.69
2019-04-29T09:39:45.370Z,98945.84
2019-04-29T09:45:05.147Z,98932.61
2019-04-29T09:50:08.455Z,98941.05
2019-04-29T09:55:11.824Z,99000.48
2019-04-29T10:00:36.269Z,99030.92
2019-04-29T10:05:47.879Z,99051.54
2019-04-29T10:10:51.185Z,99046.95
2019-04-29T10:16:00.434Z,99040.61
2019-04-29T10:21:05.639Z,99010.28
2019-04-29T10:26:09.014Z,98968.70
2019-04-29T10:31:13.195Z,98947.75
2019-04-29T10:36:20.564Z,98940.86
2019-04-29T10:41:25.727Z,98942.33
2019-04-29T10:46:46.595Z,98930.25
2019-04-29T10:51:50.001Z,98944.88
2019-04-29T10:56:53.395Z,98940.53
2019-04-29T11:02:05.310Z,98935.75
2019-04-29T11:07:19.099Z,98940.14
2019-04-29T11:12:20.608Z,98950.46
2019-04-29T11:17:25.547Z,98938.47
2019-04-29T11:22:33.951Z,98936.73
2019-04-29T11:27:48.714Z,98946.68
2019-04-29T11:32:53.644Z,98941.76
2019-04-29T11:37:59.851Z,98929.87
2019-04-29T11:43:02.108Z,98930.26
2019-04-29T11:48:05.701Z,98934.27
2019-04-29T11:53:10.676Z,98920.28
2019-04-29T11:58:24.233Z,98912.13
2019-04-29T12:03:32.030Z,98907.66
2019-04-29T12:08:35.385Z,98912.88
2019-04-29T12:13:58.894Z,98909.52
2019-04-29T12:19:08.583Z,98912.44
2019-04-29T12:24:12.992Z,98909.52
2019-04-29T12:29:18.183Z,98899.11
2019-04-29T12:34:29.176Z,98906.28
2019-04-29T12:39:49.020Z,98907.85
2019-04-29T12:44:59.657Z,98890.09
2019-04-29T12:50:03.033Z,98902.34
2019-04-29T12:55:19.866Z,98890.98
2019-04-29T13:00:14.013Z,98906.11
2019-04-29T13:05:19.087Z,98905.89
2019-04-29T13:10:24.019Z,98886.28
2019-04-29T13:15:34.726Z,98877.31
2019-04-29T13:20:41.523Z,98872.59
2019-04-29T13:25:43.212Z,98870.09
2019-04-29T13:30:46.898Z,98873.35
2019-04-29T13:35:50.292Z,98868.31
2019-04-29T13:41:11.926Z,98864.38
2019-04-29T13:46:09.084Z,98858.06
2019-04-29T13:51:36.016Z,98855.66
2019-04-29T13:56:54.241Z,98851.98
2019-04-29T14:01:58.321Z,98852.50
2019-04-29T14:06:56.648Z,98860.11
2019-04-29T14:12:01.398Z,98872.13
2019-04-29T14:17:17.172Z,98864.00
2019-04-29T14:22:03.442Z,98862.89
2019-04-29T14:27:06.771Z,98856.99
2019-04-29T14:32:10.099Z,98853.50
2019-04-29T14:37:25.032Z,98857.57
2019-04-29T14:42:32.013Z,98852.84
2019-04-29T14:47:42.380Z,98848.70
2019-04-29T14:52:49.513Z,98855.80
2019-04-29T14:57:50.770Z,98853.81
2019-04-29T15:02:55.811Z,98849.14
2019-04-29T15:07:59.273Z,98855.82
2019-04-29T15:13:20.147Z,98854.12
2019-04-29T15:18:16.176Z,98858.10
2019-04-29T15:23:28.367Z,98854.22
2019-04-29T15:28:24.191Z,98860.23
2019-04-29T15:33:30.632Z,98863.32
2019-04-29T15:38:32.583Z,98875.22
2019-04-29T15:43:47.250Z,98878.25
2019-04-29T15:48:41.305Z,98880.58
2019-04-29T15:53:44.698Z,98884.31
2019-04-29T15:58:48.459Z,98888.90
2019-04-29T16:03:54.840Z,98891.23
2019-04-29T16:09:00.162Z,98886.63
2019-04-29T16:14:09.577Z,98892.58
2019-04-29T16:19:10.476Z,98896.03
2019-04-29T16:24:26.334Z,98900.34
2019-04-29T16:29:19.598Z,98897.42
2019-04-29T16:34:23.617Z,98897.42
2019-04-29T16:39:26.925Z,98891.09
2019-04-29T16:44:36.025Z,98891.41
2019-04-29T16:49:35.405Z,98887.62
2019-04-29T16:54:38.749Z,98887.34
2019-04-29T16:59:42.051Z,98898.45
2019-04-29T17:04:45.738Z,98886.86
2019-04-29T17:09:50.668Z,98895.25
2019-04-29T17:15:03.976Z,98890.72
2019-04-29T17:19:59.371Z,98889.51
2019-04-29T17:25:02.920Z,98892.47
2019-04-29T17:30:24.022Z,98884.98
2019-04-29T17:35:29.444Z,98893.90
2019-04-29T17:40:33.290Z,98884.61
2019-04-29T17:45:38.272Z,98883.64
2019-04-29T17:50:46.814Z,98883.74
2019-04-29T17:55:49.961Z,98897.30
2019-04-29T18:01:10.627Z,98897.76
2019-04-29T18:06:24.218Z,98900.02
2019-04-29T18:11:25.079Z,98906.79
2019-04-29T18:16:30.121Z,98905.84
2019-04-29T18:21:50.891Z,98915.59
2019-04-29T18:26:58.564Z,98910.13
2019-04-29T18:32:05.191Z,98910.48
2019-04-29T18:37:07.056Z,98913.97
2019-04-29T18:42:10.347Z,98919.58
2019-04-29T18:47:21.971Z,98926.71
2019-04-29T18:52:26.004Z,98925.70
2019-04-29T18:57:30.089Z,98931.21
2019-04-29T19:02:32.147Z,98934.36
2019-04-29T19:07:37.257Z,98932.97
2019-04-29T19:12:39.419Z,98931.80
2019-04-29T19:17:42.829Z,98936.00
2019-04-29T19:22:47.346Z,98937.04
2019-04-29T19:27:50.780Z,98933.17
2019-04-29T19:33:00.447Z,98932.58
2019-04-29T19:37:59.166Z,98934.53
2019-04-29T19:43:02.511Z,98929.34
2019-04-29T19:48:06.026Z,98934.25
2019-04-29T19:53:09.303Z,98935.61
2019-04-29T19:58:13.488Z,98944.55
2019-04-29T20:03:23.925Z,98938.84
2019-04-29T20:08:41.300Z,98940.48
2019-04-29T20:13:31.915Z,98946.98
2019-04-29T20:18:40.460Z,98946.34
2019-04-29T20:23:41.998Z,98946.27
2019-04-29T20:28:45.957Z,98949.59
2019-04-29T20:33:49.619Z,98954.42
2019-04-29T20:38:53.170Z,98955.98
2019-04-29T20:43:56.676Z,98963.48
2019-04-29T20:49:01.830Z,98965.28
2019-04-29T20:54:15.909Z,98957.91
2019-04-29T20:59:15.512Z,98952.77
2019-04-29T21:04:31.194Z,98961.58
2019-04-29T21:09:28.797Z,98966.64
2019-04-29T21:14:33.988Z,98964.42
2019-04-29T21:19:36.408Z,98963.66
2019-04-29T21:24:39.801Z,98969.92
2019-04-29T21:29:43.142Z,98969.92
2019-04-29T21:35:03.233Z,98980.89
2019-04-29T21:40:14.793Z,98975.98
2019-04-29T21:45:15.536Z,98981.72
2019-04-29T21:50:20.133Z,98976.30
2019-04-29T21:55:25.797Z,98974.63
2019-04-29T22:00:28.608Z,98973.78
2019-04-29T22:05:31.973Z,98983.59
2019-04-29T22:10:36.798Z,98990.06
2019-04-29T22:15:42.395Z,98989.55
2019-04-29T22:20:45.288Z,98987.34
2019-04-29T22:25:48.635Z,98986.52
2019-04-29T22:30:54.699Z,98993.22
2019-04-29T22:35:57.025Z,98993.09
2019-04-29T22:41:01.992Z,98994.34
2019-04-29T22:46:09.386Z,99000.28
2019-04-29T22:51:17.091Z,98998.12
2019-04-29T22:56:16.011Z,99005.42
2019-04-29T23:01:19.480Z,99011.69
2019-04-29T23:06:22.810Z,99015.44
2019-04-29T23:11:26.311Z,99011.37
2019-04-29T23:16:31.487Z,99023.26
2019-04-29T23:21:50.965Z,99011.57
2019-04-29T23:26:54.894Z,99012.41
2019-04-29T23:31:59.613Z,99006.34
2019-04-29T23:37:03.365Z,98993.31
2019-04-29T23:42:12.022Z,98996.22
2019-04-29T23:47:12.216Z,99003.84
2019-04-29T23:52:15.982Z,98994.66
2019-04-29T23:57:35.893Z,98998.94
